Ingram, Wisconsin
Current Conditions -  °F | °C
As of 2:15 AM on Monday 24 Nov 2014 (Local Time) from KRCX Reporting Station
Light Rain Light Rain  
Wind Chill: 28°   Ceiling: 400
Heat Index: 36°   Visibility: 3mi
Dew Point: 36°   Wind: 12mph
Humidity: 99%   Direction: 320°NW
Pressure: 29.17"   Gusts: 18mph
Location:  45.4952°N, 90.8481°W
Report Text: KRCX 240815Z AUTO 32010G16KT 3SM -RA OVC004 02/02 A2917 RMK AO2 T00230021
Loading
Personal Weather Stations






























Interactive Weather Map New forecast layout! Learn more

10-Day Weather Forecast

Advertisements
Track Severe Weather on mobile